Terminal Aerodrome Forecast
Issued by NWS

Home | Current Version | Previous Version | Text Only | Print | Product List | Glossary On
Versions: 1 2 3 4 5 6 7 8 9 10 11 12 13 14 15 16 17 18 19 20 21
000
FTUS42 KFFC 291732
TAFFTY
TAF
KFTY 291732Z 2918/3018 15006KT P6SM SKC
     FM300000 17005KT P6SM SCT050
     FM300500 VRB03KT P6SM BKN035
     FM301100 22006KT 6SM -RA BR OVC012
     FM301300 23008KT 5SM -RA BR BKN008 OVC012=

USA.gov is the U.S. government's official web portal to all federal, state and local government web resources and services.